LTAF/ADA METAR and TAF weather

Enter ICAO airport designator
Station Type Date Time Source
LTAF METAR 2022/11/26 07:50 UTC NOAA

LTAF 260750Z VRB01KT CAVOK 17/10 Q1013 NOSIG


Station Type Date Time Source
LTAF Decoded METAR 2022/11/26 07:50 UTC NOAA

Adana / Sakirpasa, Turkey (LTAF) 36-59N 035-18E 20M
Nov 26, 2022 - 02:50 AM EST / 2022.11.26 0750 UTC
Wind: Variable at 1 MPH (1 KT):0
Visibility: greater than 7 mile(s):0
Temperature: 62 F (17 C)
Dew Point: 50 F (10 C)
Relative Humidity: 63%
Pressure (altimeter): 29.91 in. Hg (1013 hPa)
ob: LTAF 260750Z VRB01KT CAVOK 17/10 Q1013 NOSIG
cycle: 8

Station Type Date Time Source
LTAF TAF 2022/11/26 06:02 UTC NOAA

TAF LTAF 260440Z 2606/2706 VRB02KT 9999 FEW035 BKN100
BECMG 2608/2610 CAVOK
TEMPO 2610/2614 32012KT PROB30
TEMPO 2617/2620 5000 BR

Example: see airport list